This is the latest recevied weather packets stored in our database for station/object EA5CH. If no packets are shown the sender has not sent any weather packets the latest 10 day(s).
| Time | Temp. | Humidity | Pressure | Rain* | Wind** | Luminosity | Snow |
|---|---|---|---|---|---|---|---|
| 1777859719 | 17.78° C | 89% | 1015 hPa | 0 mm | - | - | - |
| 1777857918 | 18.33° C | 87% | 1014.8 hPa | 0 mm | - | - | - |
| 1777854359 | 18.89° C | 79% | 1014.7 hPa | 0 mm | - | - | - |
| 1777847119 | 18.33° C | 87% | 1015.8 hPa | 0 mm | - | - | - |
| 1777843519 | 18.33° C | 87% | 1016 hPa | 0 mm | - | - | - |
| 1777839319 | 18.33° C | 87% | 1015.5 hPa | 0 mm | - | - | - |
| 1777838719 | 18.33° C | 87% | 1015.3 hPa | 0 mm | - | - | - |
| 1777834539 | 18.33° C | 86% | 1014.2 hPa | 0 mm | - | - | - |
| 1777830919 | 18.89° C | 86% | 1014.1 hPa | 0 mm | - | - | - |
| 1777830319 | 18.89° C | 87% | 1013.9 hPa | 0 mm | - | - | - |
| 1777829719 | 18.89° C | 86% | 1013.8 hPa | 0 mm | - | - | - |
| 1777828519 | 18.89° C | 86% | 1013.7 hPa | 0 mm | - | - | - |
| 1777827319 | 19.44° C | 85% | 1013.9 hPa | 0 mm | - | - | - |
| 1777821959 | 21.11° C | 80% | 1014.1 hPa | 0 mm | - | - | - |
| 1777821319 | 20.56° C | 79% | 1014.1 hPa | 0 mm | - | - | - |
| 1777818319 | 21.11° C | 75% | 1014.6 hPa | 0 mm | - | - | - |
| 1777816519 | 21.67° C | 74% | 1014.9 hPa | 0 mm | - | - | - |
| 1777815319 | 21.67° C | 73% | 1015.1 hPa | 0 mm | - | - | - |
| 1777814119 | 21.11° C | 74% | 1015.1 hPa | 0 mm | - | - | - |
| 1777809919 | 20.56° C | 79% | 1015.7 hPa | 0 mm | - | - | - |
| 1777809319 | 20.56° C | 78% | 1015.8 hPa | 0 mm | - | - | - |
| 1777800919 | 18.89° C | 83% | 1017.3 hPa | 0 mm | - | - | - |
| 1777799719 | 18.89° C | 82% | 1017.4 hPa | 0 mm | - | - | - |
| 1777798519 | 18.33° C | 84% | 1017.6 hPa | 0 mm | - | - | - |
| 1777797319 | 18.33° C | 86% | 1017.6 hPa | 0 mm | - | - | - |
* Rain latest hour (hover to see other rain measurements)
** Current wind speed in m/s (hover to see current wind gust speed)